This is the latest recevied weather packets stored in our database for station/object TULLARI. If no packets are shown the sender has not sent any weather packets the latest 10 day(s).
| Time | Temp. | Humidity | Pressure | Rain* | Wind** | Luminosity | Snow |
|---|---|---|---|---|---|---|---|
| 1777543620 | 7.78° C | 83% | 1022.6 hPa | - | - | - | - |
| 1777542420 | 7.22° C | 87% | 1022.4 hPa | - | - | - | - |
| 1777541220 | 7.78° C | 86% | 1022.6 hPa | - | - | - | - |
| 1777540019 | 6.67° C | 91% | 1022.6 hPa | - | - | - | - |
| 1777538819 | 6.11° C | 93% | 1022.7 hPa | - | - | - | - |
| 1777537620 | 7.22° C | 89% | 1022.7 hPa | - | - | - | - |
| 1777536420 | 7.22° C | 90% | 1022.8 hPa | - | - | - | - |
| 1777535220 | 6.67° C | 92% | 1022.8 hPa | - | - | - | - |
| 1777534020 | 6.11° C | 93% | 1022.8 hPa | - | - | - | - |
| 1777532820 | 5.56° C | 94% | 1022.7 hPa | - | - | - | - |
| 1777531620 | 6.11° C | 93% | 1022.8 hPa | - | - | - | - |
| 1777530420 | 5.56° C | 93% | 1023 hPa | - | - | - | - |
| 1777529219 | 5.56° C | 92% | 1023 hPa | - | - | - | - |
| 1777528019 | 5.56° C | 92% | 1023.1 hPa | - | - | - | - |
| 1777526819 | 5.56° C | 92% | 1023 hPa | - | - | - | - |
| 1777525619 | 5° C | 93% | 1022.8 hPa | - | - | - | - |
| 1777524419 | 5° C | 94% | 1023.1 hPa | - | - | - | - |
| 1777523219 | 4.44° C | 96% | 1023 hPa | - | - | - | - |
| 1777522019 | 4.44° C | 99% | 1022.9 hPa | - | - | - | - |
| 1777520819 | 4.44° C | 99% | 1022.8 hPa | - | - | - | - |
| 1777519618 | 4.44° C | 100% | 1023.1 hPa | - | - | - | - |
| 1777518420 | 4.44° C | 100% | 1023.3 hPa | - | - | - | - |
| 1777517219 | 4.44° C | 100% | 1023.3 hPa | - | - | - | - |
| 1777516019 | 4.44° C | 99% | 1023.5 hPa | - | - | - | - |
| 1777514819 | 4.44° C | 97% | 1023.6 hPa | - | - | - | - |
* Rain since midnight (hover to see other rain measurements)
** Current wind speed in m/s (hover to see current wind gust speed)